Inaccurate Metar data

sho69607

New member
Something strange is happening here.

Here is the current METAR for KPBI as of: 0559 UTC 03 Sep 2019

KPBI 030553Z AUTO 33018G25KT 10SM SCT024 BKN030 OVC042 26/24 A2960 RMK AO2 PK WND 32029/0501 SLP022 T02610239 10267 20256 56008 PWINO $

but Active Sky is saying this: KPBI 030300Z VRB99KT 0966 FG +RA BKN030CB OVC250 20/20 Q0982

Not sure if Dorian is affecting this or not, but the winds are not currently at 99kts at KPBI according to AWC.
 
Last edited:

maxam

Super Moderator
Hello,

Was live weather enabled in ASPX Wx Control tab? Please see page 7 of the ASXP User's Guide regarding loading the proper METAR file.
 

cactus683

New member
Im having the same problem,im running beta 7180 and im supposed to be havng overcast skies right now and there just popcorn clouds around.
 

maxam

Super Moderator
Hello,

Same as above, are you loading the METAR file as per the User's Guide? Please try uninstall/reinstall of ASXP ensuring to remove all saved data when prompted. We would be happy to assist you, please log onto the HiFi support portal (http://support.hifitechinc.com) and log a support ticket, be sure to copy the URL from this forum post and include it in the ticket request. Please include most recent session logs, with Active Sky (only) running press the "Logs" button and save the AS_Log_Export.txt and attach to your ticket request.

The support site requires a separate login from the forum. Please note that you cannot login with your forum credentials, you will have to create a new account.

Thank you.
 
Top